sensor_id;sensor_type;location;lat;lon;timestamp;pressure;altitude;pressure_sealevel;temperature;humidity
11542;BME280;5827;49.482;7.716;2022-10-31T00:00:26;99291.00;;;11.39;100.00
11542;BME280;5827;49.482;7.716;2022-10-31T00:02:28;99288.81;;;11.36;100.00
11542;BME280;5827;49.482;7.716;2022-10-31T00:04:29;99281.56;;;11.37;100.00
11542;BME280;5827;49.482;7.716;2022-10-31T00:06:31;99278.41;;;11.40;100.00
11542;BME280;5827;49.482;7.716;2022-10-31T00:08:32;99287.41;;;11.34;100.00
11542;BME280;5827;49.482;7.716;2022-10-31T00:10:37;99292.19;;;11.32;100.00
11542;BME280;5827;49.482;7.716;2022-10-31T00:12:39;99295.09;;;11.30;100.00
11542;BME280;5827;49.482;7.716;2022-10-31T00:14:41;99300.25;;;11.32;100.00
11542;BME280;5827;49.482;7.716;2022-10-31T00:16:43;99298.47;;;11.26;100.00
11542;BME280;5827;49.482;7.716;2022-10-31T00:18:48;99297.78;;;11.30;100.00
11542;BME280;5827;49.482;7.716;2022-10-31T00:20:58;99298.25;;;11.39;100.00
11542;BME280;5827;49.482;7.716;2022-10-31T00:23:01;99300.91;;;11.39;100.00
11542;BME280;5827;49.482;7.716;2022-10-31T00:25:03;99301.16;;;11.37;100.00
11542;BME280;5827;49.482;7.716;2022-10-31T00:27:04;99301.50;;;11.41;100.00
11542;BME280;5827;49.482;7.716;2022-10-31T00:29:06;99295.31;;;11.40;100.00
11542;BME280;5827;49.482;7.716;2022-10-31T00:31:10;99293.69;;;11.39;100.00
11542;BME280;5827;49.482;7.716;2022-10-31T00:33:12;99296.38;;;11.39;100.00
11542;BME280;5827;49.482;7.716;2022-10-31T00:35:14;99289.38;;;11.38;100.00
11542;BME280;5827;49.482;7.716;2022-10-31T00:37:15;99297.31;;;11.33;100.00
11542;BME280;5827;49.482;7.716;2022-10-31T00:39:17;99290.66;;;11.36;100.00
11542;BME280;5827;49.482;7.716;2022-10-31T00:41:18;99289.63;;;11.37;100.00
11542;BME280;5827;49.482;7.716;2022-10-31T00:43:20;99293.69;;;11.39;100.00
11542;BME280;5827;49.482;7.716;2022-10-31T00:45:21;99292.88;;;11.39;100.00
11542;BME280;5827;49.482;7.716;2022-10-31T00:47:24;99295.56;;;11.39;100.00
11542;BME280;5827;49.482;7.716;2022-10-31T00:49:26;99292.63;;;11.40;100.00
11542;BME280;5827;49.482;7.716;2022-10-31T00:51:27;99289.03;;;11.35;100.00
11542;BME280;5827;49.482;7.716;2022-10-31T00:53:29;99287.28;;;11.29;100.00
11542;BME280;5827;49.482;7.716;2022-10-31T00:55:31;99290.44;;;11.26;100.00
11542;BME280;5827;49.482;7.716;2022-10-31T00:57:32;99286.69;;;11.27;100.00
11542;BME280;5827;49.482;7.716;2022-10-31T00:59:34;99287.03;;;11.30;100.00
11542;BME280;5827;49.482;7.716;2022-10-31T01:01:35;99286.84;;;11.32;100.00
11542;BME280;5827;49.482;7.716;2022-10-31T01:03:38;99281.94;;;11.29;100.00
11542;BME280;5827;49.482;7.716;2022-10-31T01:05:40;99288.00;;;11.24;100.00
11542;BME280;5827;49.482;7.716;2022-10-31T01:07:41;99281.94;;;11.29;100.00
11542;BME280;5827;49.482;7.716;2022-10-31T01:09:43;99287.03;;;11.30;100.00
11542;BME280;5827;49.482;7.716;2022-10-31T01:11:45;99284.59;;;11.29;100.00
11542;BME280;5827;49.482;7.716;2022-10-31T01:13:47;99288.34;;;11.28;100.00
11542;BME280;5827;49.482;7.716;2022-10-31T01:15:53;99280.19;;;11.23;100.00
11542;BME280;5827;49.482;7.716;2022-10-31T01:17:55;99280.75;;;11.25;100.00
11542;BME280;5827;49.482;7.716;2022-10-31T01:19:58;99283.69;;;11.23;100.00
11542;BME280;5827;49.482;7.716;2022-10-31T01:21:59;99290.69;;;11.24;100.00
11542;BME280;5827;49.482;7.716;2022-10-31T01:24:01;99284.84;;;11.27;100.00
11542;BME280;5827;49.482;7.716;2022-10-31T01:26:06;99286.00;;;11.31;100.00
11542;BME280;5827;49.482;7.716;2022-10-31T01:28:07;99271.09;;;11.24;100.00
11542;BME280;5827;49.482;7.716;2022-10-31T01:30:10;99282.63;;;11.24;100.00
11542;BME280;5827;49.482;7.716;2022-10-31T01:32:11;99282.97;;;11.28;100.00
11542;BME280;5827;49.482;7.716;2022-10-31T01:34:15;99284.16;;;11.20;100.00
11542;BME280;5827;49.482;7.716;2022-10-31T01:36:20;99281.47;;;11.20;100.00
11542;BME280;5827;49.482;7.716;2022-10-31T01:38:22;99284.84;;;11.15;100.00
11542;BME280;5827;49.482;7.716;2022-10-31T01:40:24;99283.22;;;11.14;100.00
11542;BME280;5827;49.482;7.716;2022-10-31T01:42:30;99280.53;;;11.14;100.00
11542;BME280;5827;49.482;7.716;2022-10-31T01:44:52;99287.41;;;11.10;100.00
11542;BME280;5827;49.482;7.716;2022-10-31T01:46:58;99289.75;;;11.07;100.00
11542;BME280;5827;49.482;7.716;2022-10-31T01:49:02;99286.50;;;11.05;100.00
11542;BME280;5827;49.482;7.716;2022-10-31T01:51:05;99286.72;;;10.91;100.00
11542;BME280;5827;49.482;7.716;2022-10-31T01:53:09;99287.41;;;10.99;100.00
11542;BME280;5827;49.482;7.716;2022-10-31T01:55:16;99290.78;;;10.94;100.00
11542;BME280;5827;49.482;7.716;2022-10-31T01:57:20;99275.88;;;10.86;100.00
11542;BME280;5827;49.482;7.716;2022-10-31T01:59:24;99278.91;;;10.78;100.00
11542;BME280;5827;49.482;7.716;2022-10-31T02:01:28;99273.53;;;10.90;100.00
11542;BME280;5827;49.482;7.716;2022-10-31T02:03:30;99280.19;;;10.99;100.00
11542;BME280;5827;49.482;7.716;2022-10-31T02:05:32;99283.00;;;11.04;100.00
11542;BME280;5827;49.482;7.716;2022-10-31T02:07:38;99285.69;;;11.04;100.00
11542;BME280;5827;49.482;7.716;2022-10-31T02:09:43;99283.31;;;11.08;100.00
11542;BME280;5827;49.482;7.716;2022-10-31T02:11:46;99278.44;;;11.05;100.00
11542;BME280;5827;49.482;7.716;2022-10-31T02:13:48;99277.28;;;11.01;100.00
11542;BME280;5827;49.482;7.716;2022-10-31T02:15:52;99274.34;;;11.02;100.00
11542;BME280;5827;49.482;7.716;2022-10-31T02:17:54;99279.97;;;11.01;100.00
11542;BME280;5827;49.482;7.716;2022-10-31T02:20:01;99273.31;;;11.03;100.00
11542;BME280;5827;49.482;7.716;2022-10-31T02:22:11;99268.53;;;11.05;100.00
11542;BME280;5827;49.482;7.716;2022-10-31T02:24:34;99268.03;;;11.08;100.00
11542;BME280;5827;49.482;7.716;2022-10-31T02:26:52;99270.63;;;11.15;100.00
11542;BME280;5827;49.482;7.716;2022-10-31T02:29:10;99264.34;;;11.09;100.00
11542;BME280;5827;49.482;7.716;2022-10-31T02:31:25;99260.00;;;11.08;100.00
11542;BME280;5827;49.482;7.716;2022-10-31T02:33:35;99261.41;;;11.11;100.00
11542;BME280;5827;49.482;7.716;2022-10-31T02:35:50;99262.94;;;11.07;100.00
11542;BME280;5827;49.482;7.716;2022-10-31T02:37:59;99256.06;;;11.11;100.00
11542;BME280;5827;49.482;7.716;2022-10-31T02:40:07;99259.53;;;11.11;100.00
11542;BME280;5827;49.482;7.716;2022-10-31T02:42:16;99257.47;;;11.13;100.00
11542;BME280;5827;49.482;7.716;2022-10-31T02:44:22;99255.81;;;11.12;100.00
11542;BME280;5827;49.482;7.716;2022-10-31T02:46:34;99251.97;;;11.08;100.00
11542;BME280;5827;49.482;7.716;2022-10-31T02:48:39;99242.28;;;11.07;100.00
11542;BME280;5827;49.482;7.716;2022-10-31T02:50:45;99241.72;;;11.05;100.00
11542;BME280;5827;49.482;7.716;2022-10-31T02:52:51;99238.69;;;11.02;100.00
11542;BME280;5827;49.482;7.716;2022-10-31T02:54:54;99238.94;;;11.00;100.00
11542;BME280;5827;49.482;7.716;2022-10-31T02:56:58;99245.66;;;11.03;100.00
11542;BME280;5827;49.482;7.716;2022-10-31T02:59:02;99241.16;;;10.91;100.00
11542;BME280;5827;49.482;7.716;2022-10-31T03:01:19;99240.91;;;10.93;100.00
11542;BME280;5827;49.482;7.716;2022-10-31T03:03:30;99237.41;;;10.92;100.00
11542;BME280;5827;49.482;7.716;2022-10-31T03:05:41;99246.38;;;10.98;100.00
11542;BME280;5827;49.482;7.716;2022-10-31T03:07:52;99250.22;;;11.02;100.00
11542;BME280;5827;49.482;7.716;2022-10-31T03:10:04;99243.22;;;10.89;100.00
11542;BME280;5827;49.482;7.716;2022-10-31T03:12:15;99245.00;;;10.96;100.00
11542;BME280;5827;49.482;7.716;2022-10-31T03:14:23;99250.69;;;10.99;100.00
11542;BME280;5827;49.482;7.716;2022-10-31T03:16:31;99250.22;;;11.02;100.00
11542;BME280;5827;49.482;7.716;2022-10-31T03:18:39;99255.03;;;11.00;100.00
11542;BME280;5827;49.482;7.716;2022-10-31T03:20:45;99248.13;;;11.04;100.00
11542;BME280;5827;49.482;7.716;2022-10-31T03:22:49;99253.16;;;11.01;100.00
11542;BME280;5827;49.482;7.716;2022-10-31T03:24:52;99249.53;;;11.07;100.00
11542;BME280;5827;49.482;7.716;2022-10-31T03:26:57;99250.34;;;11.07;100.00
11542;BME280;5827;49.482;7.716;2022-10-31T03:29:03;99250.13;;;11.09;100.00
11542;BME280;5827;49.482;7.716;2022-10-31T03:31:06;99251.84;;;11.15;100.00
11542;BME280;5827;49.482;7.716;2022-10-31T03:33:11;99248.94;;;11.16;100.00
11542;BME280;5827;49.482;7.716;2022-10-31T03:35:17;99235.88;;;11.20;100.00
11542;BME280;5827;49.482;7.716;2022-10-31T03:37:22;99243.66;;;11.22;100.00
11542;BME280;5827;49.482;7.716;2022-10-31T03:39:27;99250.56;;;11.17;100.00
11542;BME280;5827;49.482;7.716;2022-10-31T03:41:34;99243.66;;;11.22;100.00
11542;BME280;5827;49.482;7.716;2022-10-31T03:43:40;99254.28;;;11.16;100.00
11542;BME280;5827;49.482;7.716;2022-10-31T03:45:45;99253.72;;;11.14;100.00
11542;BME280;5827;49.482;7.716;2022-10-31T03:47:47;99251.50;;;11.11;100.00
11542;BME280;5827;49.482;7.716;2022-10-31T03:49:50;99243.81;;;11.03;100.00
11542;BME280;5827;49.482;7.716;2022-10-31T03:51:57;99246.97;;;11.00;100.00
11542;BME280;5827;49.482;7.716;2022-10-31T03:54:04;99250.34;;;10.96;100.00
11542;BME280;5827;49.482;7.716;2022-10-31T03:56:12;99247.88;;;10.94;100.00
11542;BME280;5827;49.482;7.716;2022-10-31T03:58:20;99248.94;;;10.93;100.00
11542;BME280;5827;49.482;7.716;2022-10-31T04:00:23;99249.75;;;10.93;100.00
11542;BME280;5827;49.482;7.716;2022-10-31T04:02:29;99244.19;;;10.95;100.00
11542;BME280;5827;49.482;7.716;2022-10-31T04:04:33;99246.72;;;10.90;100.00
11542;BME280;5827;49.482;7.716;2022-10-31T04:06:37;99237.88;;;10.89;100.00
11542;BME280;5827;49.482;7.716;2022-10-31T04:08:44;99239.63;;;10.84;100.00
11542;BME280;5827;49.482;7.716;2022-10-31T04:10:48;99235.06;;;10.84;100.00
11542;BME280;5827;49.482;7.716;2022-10-31T04:12:55;99237.53;;;10.86;100.00
11542;BME280;5827;49.482;7.716;2022-10-31T04:15:00;99239.16;;;10.87;100.00
11542;BME280;5827;49.482;7.716;2022-10-31T04:17:05;99232.28;;;10.91;100.00
11542;BME280;5827;49.482;7.716;2022-10-31T04:19:09;99245.91;;;10.89;100.00
11542;BME280;5827;49.482;7.716;2022-10-31T04:21:10;99243.59;;;10.93;100.00
11542;BME280;5827;49.482;7.716;2022-10-31T04:23:17;99243.81;;;10.91;100.00
11542;BME280;5827;49.482;7.716;2022-10-31T04:25:21;99240.78;;;10.88;100.00
11542;BME280;5827;49.482;7.716;2022-10-31T04:27:23;99239.16;;;10.87;100.00
11542;BME280;5827;49.482;7.716;2022-10-31T04:29:24;99245.44;;;10.81;100.00
11542;BME280;5827;49.482;7.716;2022-10-31T04:31:26;99245.69;;;10.79;100.00
11542;BME280;5827;49.482;7.716;2022-10-31T04:33:28;99236.59;;;10.80;100.00
11542;BME280;5827;49.482;7.716;2022-10-31T04:35:29;99232.03;;;10.81;100.00
11542;BME280;5827;49.482;7.716;2022-10-31T04:37:31;99238.25;;;10.81;100.00
11542;BME280;5827;49.482;7.716;2022-10-31T04:39:32;99234.97;;;10.79;100.00
11542;BME280;5827;49.482;7.716;2022-10-31T04:41:35;99240.78;;;10.76;100.00
11542;BME280;5827;49.482;7.716;2022-10-31T04:43:37;99228.22;;;10.77;100.00
11542;BME280;5827;49.482;7.716;2022-10-31T04:45:38;99230.66;;;10.78;100.00
11542;BME280;5827;49.482;7.716;2022-10-31T04:47:40;99227.72;;;10.80;100.00
11542;BME280;5827;49.482;7.716;2022-10-31T04:49:41;99227.16;;;10.78;100.00
11542;BME280;5827;49.482;7.716;2022-10-31T04:51:43;99228.06;;;10.72;100.00
11542;BME280;5827;49.482;7.716;2022-10-31T04:53:44;99226.94;;;10.67;100.00
11542;BME280;5827;49.482;7.716;2022-10-31T04:55:46;99230.75;;;10.72;100.00
11542;BME280;5827;49.482;7.716;2022-10-31T04:57:49;99228.91;;;10.72;100.00
11542;BME280;5827;49.482;7.716;2022-10-31T04:59:51;99235.91;;;10.73;100.00
11542;BME280;5827;49.482;7.716;2022-10-31T05:01:52;99226.56;;;10.64;100.00
11542;BME280;5827;49.482;7.716;2022-10-31T05:03:54;99225.75;;;10.63;100.00
11542;BME280;5827;49.482;7.716;2022-10-31T05:05:55;99225.16;;;10.61;100.00
11542;BME280;5827;49.482;7.716;2022-10-31T05:07:57;99224.00;;;10.57;100.00
11542;BME280;5827;49.482;7.716;2022-10-31T05:09:59;99224.94;;;10.63;100.00
11542;BME280;5827;49.482;7.716;2022-10-31T05:12:00;99221.66;;;10.61;100.00
11542;BME280;5827;49.482;7.716;2022-10-31T05:14:03;99219.22;;;10.59;100.00
11542;BME280;5827;49.482;7.716;2022-10-31T05:16:05;99219.00;;;10.61;100.00
11542;BME280;5827;49.482;7.716;2022-10-31T05:18:07;99218.50;;;10.52;100.00
11542;BME280;5827;49.482;7.716;2022-10-31T05:20:09;99217.25;;;10.66;100.00
11542;BME280;5827;49.482;7.716;2022-10-31T05:22:10;99212.56;;;10.62;100.00
11542;BME280;5827;49.482;7.716;2022-10-31T05:24:12;99212.38;;;10.63;100.00
11542;BME280;5827;49.482;7.716;2022-10-31T05:26:14;99211.88;;;10.66;100.00
11542;BME280;5827;49.482;7.716;2022-10-31T05:28:15;99211.06;;;10.66;100.00
11542;BME280;5827;49.482;7.716;2022-10-31T05:30:20;99207.00;;;10.63;100.00
11542;BME280;5827;49.482;7.716;2022-10-31T05:32:22;99203.03;;;10.66;100.00
11542;BME280;5827;49.482;7.716;2022-10-31T05:34:23;99204.78;;;10.60;100.00
11542;BME280;5827;49.482;7.716;2022-10-31T05:36:25;99204.44;;;10.57;100.00
11542;BME280;5827;49.482;7.716;2022-10-31T05:38:26;99198.00;;;10.58;100.00
11542;BME280;5827;49.482;7.716;2022-10-31T05:40:28;99192.09;;;10.56;100.00
11542;BME280;5827;49.482;7.716;2022-10-31T05:42:29;99201.06;;;10.50;100.00
11542;BME280;5827;49.482;7.716;2022-10-31T05:44:31;99193.03;;;10.50;100.00
11542;BME280;5827;49.482;7.716;2022-10-31T05:46:34;99188.47;;;10.50;100.00
11542;BME280;5827;49.482;7.716;2022-10-31T05:48:35;99193.22;;;10.48;100.00
11542;BME280;5827;49.482;7.716;2022-10-31T05:50:37;99186.59;;;10.39;100.00
11542;BME280;5827;49.482;7.716;2022-10-31T05:52:39;99185.78;;;10.38;100.00
11542;BME280;5827;49.482;7.716;2022-10-31T05:54:40;99184.59;;;10.34;100.00
11542;BME280;5827;49.482;7.716;2022-10-31T05:56:42;99186.22;;;10.35;100.00
11542;BME280;5827;49.482;7.716;2022-10-31T05:58:43;99183.22;;;10.32;100.00
11542;BME280;5827;49.482;7.716;2022-10-31T06:00:45;99184.03;;;10.32;100.00
11542;BME280;5827;49.482;7.716;2022-10-31T06:02:48;99185.28;;;10.30;100.00
11542;BME280;5827;49.482;7.716;2022-10-31T06:04:50;99191.00;;;10.33;100.00
11542;BME280;5827;49.482;7.716;2022-10-31T06:06:52;99186.34;;;10.29;100.00
11542;BME280;5827;49.482;7.716;2022-10-31T06:08:53;99190.66;;;10.30;100.00
11542;BME280;5827;49.482;7.716;2022-10-31T06:10:55;99189.84;;;10.29;100.00
11542;BME280;5827;49.482;7.716;2022-10-31T06:12:56;99188.47;;;10.27;100.00
11542;BME280;5827;49.482;7.716;2022-10-31T06:14:58;99183.91;;;10.27;100.00
11542;BME280;5827;49.482;7.716;2022-10-31T06:16:59;99188.41;;;10.15;100.00
11542;BME280;5827;49.482;7.716;2022-10-31T06:19:02;99181.88;;;10.11;100.00
11542;BME280;5827;49.482;7.716;2022-10-31T06:21:04;99181.28;;;10.21;100.00
11542;BME280;5827;49.482;7.716;2022-10-31T06:23:06;99187.03;;;10.24;100.00
11542;BME280;5827;49.482;7.716;2022-10-31T06:25:07;99184.13;;;10.26;100.00
11542;BME280;5827;49.482;7.716;2022-10-31T06:27:09;99190.28;;;10.26;100.00
11542;BME280;5827;49.482;7.716;2022-10-31T06:29:11;99187.16;;;10.29;100.00
11542;BME280;5827;49.482;7.716;2022-10-31T06:31:12;99189.84;;;10.29;100.00
11542;BME280;5827;49.482;7.716;2022-10-31T06:33:14;99189.28;;;10.27;100.00
11542;BME280;5827;49.482;7.716;2022-10-31T06:35:17;99194.16;;;10.30;100.00
11542;BME280;5827;49.482;7.716;2022-10-31T06:37:19;99190.66;;;10.30;100.00
11542;BME280;5827;49.482;7.716;2022-10-31T06:39:20;99192.19;;;10.37;100.00
11542;BME280;5827;49.482;7.716;2022-10-31T06:41:22;99193.56;;;10.40;100.00
11542;BME280;5827;49.482;7.716;2022-10-31T06:43:23;99192.41;;;10.48;100.00
11542;BME280;5827;49.482;7.716;2022-10-31T06:45:25;99191.38;;;10.49;100.00
11542;BME280;5827;49.482;7.716;2022-10-31T06:47:27;99186.47;;;10.57;100.00
11542;BME280;5827;49.482;7.716;2022-10-31T06:49:28;99187.44;;;10.63;100.00
11542;BME280;5827;49.482;7.716;2022-10-31T06:51:31;99193.38;;;10.65;100.00
11542;BME280;5827;49.482;7.716;2022-10-31T06:53:33;99188.47;;;10.74;100.00
11542;BME280;5827;49.482;7.716;2022-10-31T06:55:34;99188.59;;;10.79;100.00
11542;BME280;5827;49.482;7.716;2022-10-31T06:57:36;99190.56;;;10.83;100.00
11542;BME280;5827;49.482;7.716;2022-10-31T06:59:37;99187.28;;;10.93;100.00
11542;BME280;5827;49.482;7.716;2022-10-31T07:01:39;99187.38;;;10.98;100.00
11542;BME280;5827;49.482;7.716;2022-10-31T07:03:40;99184.72;;;10.98;100.00
11542;BME280;5827;49.482;7.716;2022-10-31T07:05:42;99185.97;;;11.07;100.00
11542;BME280;5827;49.482;7.716;2022-10-31T07:07:45;99182.59;;;11.12;100.00
11542;BME280;5827;49.482;7.716;2022-10-31T07:09:47;99185.72;;;11.20;100.00
11542;BME280;5827;49.482;7.716;2022-10-31T07:11:51;99194.22;;;11.17;100.00
11542;BME280;5827;49.482;7.716;2022-10-31T07:13:52;99188.16;;;11.22;100.00
11542;BME280;5827;49.482;7.716;2022-10-31T07:15:58;99189.31;;;11.26;100.00
11542;BME280;5827;49.482;7.716;2022-10-31T07:18:00;99193.88;;;11.26;100.00
11542;BME280;5827;49.482;7.716;2022-10-31T07:20:02;99191.78;;;11.28;100.00
11542;BME280;5827;49.482;7.716;2022-10-31T07:22:04;99196.19;;;11.34;100.00
11542;BME280;5827;49.482;7.716;2022-10-31T07:24:07;99194.78;;;11.31;100.00
11542;BME280;5827;49.482;7.716;2022-10-31T07:26:09;99194.06;;;11.36;100.00
11542;BME280;5827;49.482;7.716;2022-10-31T07:28:11;99206.19;;;11.50;100.00
11542;BME280;5827;49.482;7.716;2022-10-31T07:30:13;99204.53;;;11.49;100.00
11542;BME280;5827;49.482;7.716;2022-10-31T07:32:17;99203.91;;;11.59;100.00
11542;BME280;5827;49.482;7.716;2022-10-31T07:34:18;99201.66;;;11.67;100.00
11542;BME280;5827;49.482;7.716;2022-10-31T07:36:20;99211.94;;;11.70;100.00
11542;BME280;5827;49.482;7.716;2022-10-31T07:38:21;99203.63;;;11.84;100.00
11542;BME280;5827;49.482;7.716;2022-10-31T07:40:24;99201.84;;;11.89;100.00
11542;BME280;5827;49.482;7.716;2022-10-31T07:42:27;99203.25;;;11.80;100.00
11542;BME280;5827;49.482;7.716;2022-10-31T07:44:28;99202.25;;;11.98;100.00
11542;BME280;5827;49.482;7.716;2022-10-31T07:46:30;99204.31;;;12.08;100.00
11542;BME280;5827;49.482;7.716;2022-10-31T07:48:31;99210.09;;;12.16;100.00
11542;BME280;5827;49.482;7.716;2022-10-31T07:50:33;99210.78;;;12.24;100.00
11542;BME280;5827;49.482;7.716;2022-10-31T07:52:35;99208.47;;;12.32;100.00
11542;BME280;5827;49.482;7.716;2022-10-31T07:54:36;99200.91;;;12.29;100.00
11542;BME280;5827;49.482;7.716;2022-10-31T07:56:39;99195.63;;;12.34;100.00
11542;BME280;5827;49.482;7.716;2022-10-31T07:58:41;99202.28;;;12.15;100.00
11542;BME280;5827;49.482;7.716;2022-10-31T08:00:44;99200.66;;;12.31;100.00
11542;BME280;5827;49.482;7.716;2022-10-31T08:02:45;99203.50;;;12.41;100.00
11542;BME280;5827;49.482;7.716;2022-10-31T08:04:47;99202.63;;;12.52;100.00
11542;BME280;5827;49.482;7.716;2022-10-31T08:06:48;99203.84;;;12.61;100.00
11542;BME280;5827;49.482;7.716;2022-10-31T08:08:50;99209.63;;;12.70;100.00
11542;BME280;5827;49.482;7.716;2022-10-31T08:10:52;99215.47;;;12.67;100.00
11542;BME280;5827;49.482;7.716;2022-10-31T08:12:59;99209.09;;;12.73;100.00
11542;BME280;5827;49.482;7.716;2022-10-31T08:15:01;99210.56;;;12.81;100.00
11542;BME280;5827;49.482;7.716;2022-10-31T08:17:02;99204.72;;;12.84;100.00
11542;BME280;5827;49.482;7.716;2022-10-31T08:19:04;99210.72;;;12.91;100.00
11542;BME280;5827;49.482;7.716;2022-10-31T08:21:05;99205.84;;;12.88;100.00
11542;BME280;5827;49.482;7.716;2022-10-31T08:23:09;99208.63;;;12.93;100.00
11542;BME280;5827;49.482;7.716;2022-10-31T08:25:11;99203.38;;;13.03;100.00
11542;BME280;5827;49.482;7.716;2022-10-31T08:27:12;99204.81;;;13.11;100.00
11542;BME280;5827;49.482;7.716;2022-10-31T08:29:15;99199.72;;;13.14;100.00
11542;BME280;5827;49.482;7.716;2022-10-31T08:31:17;99207.41;;;13.22;100.00
11542;BME280;5827;49.482;7.716;2022-10-31T08:33:18;99202.66;;;13.30;100.00
11542;BME280;5827;49.482;7.716;2022-10-31T08:35:20;99207.09;;;13.41;100.00
11542;BME280;5827;49.482;7.716;2022-10-31T08:37:21;99202.34;;;13.48;100.00
11542;BME280;5827;49.482;7.716;2022-10-31T08:39:23;99207.31;;;13.56;100.00
11542;BME280;5827;49.482;7.716;2022-10-31T08:41:24;99204.53;;;13.51;100.00
11542;BME280;5827;49.482;7.716;2022-10-31T08:43:26;99204.41;;;13.63;100.00
11542;BME280;5827;49.482;7.716;2022-10-31T08:45:30;99205.84;;;13.70;100.00
11542;BME280;5827;49.482;7.716;2022-10-31T08:47:31;99202.63;;;13.73;100.00
11542;BME280;5827;49.482;7.716;2022-10-31T08:49:33;99193.91;;;13.88;100.00
11542;BME280;5827;49.482;7.716;2022-10-31T08:51:35;99195.31;;;13.96;100.00
11542;BME280;5827;49.482;7.716;2022-10-31T08:53:37;99192.47;;;14.08;100.00
11542;BME280;5827;49.482;7.716;2022-10-31T08:55:40;99194.41;;;14.12;100.00
11542;BME280;5827;49.482;7.716;2022-10-31T08:57:42;99179.09;;;14.18;100.00
11542;BME280;5827;49.482;7.716;2022-10-31T08:59:43;99179.38;;;14.21;100.00
11542;BME280;5827;49.482;7.716;2022-10-31T09:01:46;99175.91;;;14.26;100.00
11542;BME280;5827;49.482;7.716;2022-10-31T09:03:48;99179.81;;;14.40;100.00
11542;BME280;5827;49.482;7.716;2022-10-31T09:05:50;99181.47;;;14.46;100.00
11542;BME280;5827;49.482;7.716;2022-10-31T09:07:55;99179.16;;;14.60;100.00
11542;BME280;5827;49.482;7.716;2022-10-31T09:09:57;99177.84;;;14.63;100.00
11542;BME280;5827;49.482;7.716;2022-10-31T09:11:58;99181.97;;;14.76;100.00
11542;BME280;5827;49.482;7.716;2022-10-31T09:14:00;99186.06;;;14.83;100.00
11542;BME280;5827;49.482;7.716;2022-10-31T09:16:01;99182.03;;;14.86;100.00
11542;BME280;5827;49.482;7.716;2022-10-31T09:18:05;99180.97;;;14.92;100.00
11542;BME280;5827;49.482;7.716;2022-10-31T09:20:07;99174.00;;;15.01;100.00
11542;BME280;5827;49.482;7.716;2022-10-31T09:22:09;99161.34;;;15.07;100.00
11542;BME280;5827;49.482;7.716;2022-10-31T09:24:11;99156.75;;;15.07;100.00
11542;BME280;5827;49.482;7.716;2022-10-31T09:26:13;99160.31;;;15.13;100.00
11542;BME280;5827;49.482;7.716;2022-10-31T09:28:16;99161.94;;;15.19;100.00
11542;BME280;5827;49.482;7.716;2022-10-31T09:30:18;99155.50;;;15.30;100.00
11542;BME280;5827;49.482;7.716;2022-10-31T09:32:19;99161.22;;;15.39;100.00
11542;BME280;5827;49.482;7.716;2022-10-31T09:34:22;99162.31;;;15.48;100.00
11542;BME280;5827;49.482;7.716;2022-10-31T09:36:24;99155.31;;;15.57;100.00
11542;BME280;5827;49.482;7.716;2022-10-31T09:38:25;99158.63;;;15.64;100.00
11542;BME280;5827;49.482;7.716;2022-10-31T09:40:35;99163.22;;;15.69;100.00
11542;BME280;5827;49.482;7.716;2022-10-31T09:42:46;99161.63;;;15.73;100.00
11542;BME280;5827;49.482;7.716;2022-10-31T09:45:01;99153.53;;;15.83;100.00
11542;BME280;5827;49.482;7.716;2022-10-31T09:47:10;99155.69;;;15.91;100.00
11542;BME280;5827;49.482;7.716;2022-10-31T09:49:33;99150.56;;;15.90;100.00
11542;BME280;5827;49.482;7.716;2022-10-31T09:51:40;99141.66;;;15.94;100.00
11542;BME280;5827;49.482;7.716;2022-10-31T09:53:46;99153.00;;;16.07;100.00
11542;BME280;5827;49.482;7.716;2022-10-31T09:55:50;99144.63;;;16.03;100.00
11542;BME280;5827;49.482;7.716;2022-10-31T09:57:52;99144.63;;;16.23;100.00
11542;BME280;5827;49.482;7.716;2022-10-31T09:59:55;99141.38;;;16.42;100.00
11542;BME280;5827;49.482;7.716;2022-10-31T10:02:00;99144.63;;;16.29;100.00
11542;BME280;5827;49.482;7.716;2022-10-31T10:04:11;99140.03;;;16.34;100.00
11542;BME280;5827;49.482;7.716;2022-10-31T10:06:23;99141.06;;;16.53;100.00
11542;BME280;5827;49.482;7.716;2022-10-31T10:08:29;99138.09;;;16.65;100.00
11542;BME280;5827;49.482;7.716;2022-10-31T10:10:44;99133.19;;;16.67;100.00
11542;BME280;5827;49.482;7.716;2022-10-31T10:13:04;99133.22;;;16.83;100.00
11542;BME280;5827;49.482;7.716;2022-10-31T10:17:40;99136.34;;;17.15;100.00
11542;BME280;5827;49.482;7.716;2022-10-31T10:20:03;99136.81;;;17.33;100.00
11542;BME280;5827;49.482;7.716;2022-10-31T10:22:15;99144.34;;;17.41;98.74
11542;BME280;5827;49.482;7.716;2022-10-31T10:24:29;99143.47;;;17.56;97.72
11542;BME280;5827;49.482;7.716;2022-10-31T10:26:36;99145.31;;;17.65;98.08
11542;BME280;5827;49.482;7.716;2022-10-31T10:28:39;99143.13;;;17.62;99.30
11542;BME280;5827;49.482;7.716;2022-10-31T10:30:44;99139.56;;;17.72;99.28
11542;BME280;5827;49.482;7.716;2022-10-31T10:32:49;99152.28;;;17.76;97.97
11542;BME280;5827;49.482;7.716;2022-10-31T10:34:54;99153.09;;;17.77;97.53
11542;BME280;5827;49.482;7.716;2022-10-31T10:37:03;99154.13;;;17.86;98.34
11542;BME280;5827;49.482;7.716;2022-10-31T10:39:14;99150.00;;;17.94;98.73
11542;BME280;5827;49.482;7.716;2022-10-31T10:41:19;99149.41;;;18.02;98.29
11542;BME280;5827;49.482;7.716;2022-10-31T10:43:23;99144.19;;;18.11;98.47
11542;BME280;5827;49.482;7.716;2022-10-31T10:45:24;99137.06;;;18.20;97.76
11542;BME280;5827;49.482;7.716;2022-10-31T10:47:47;99148.69;;;18.25;95.37
11542;BME280;5827;49.482;7.716;2022-10-31T10:49:52;99151.34;;;18.31;95.86
11542;BME280;5827;49.482;7.716;2022-10-31T10:51:58;99148.59;;;18.36;94.83
11542;BME280;5827;49.482;7.716;2022-10-31T10:54:24;99150.66;;;18.49;95.32
11542;BME280;5827;49.482;7.716;2022-10-31T10:56:38;99144.06;;;18.55;94.51
11542;BME280;5827;49.482;7.716;2022-10-31T10:58:41;99142.75;;;18.52;95.11